createdAt,value
2019-04-06T00:02:19.565Z,73.00
2019-04-06T00:04:48.904Z,73.10
2019-04-06T00:07:18.097Z,73.17
2019-04-06T00:09:47.480Z,73.16
2019-04-06T00:12:16.671Z,73.16
2019-04-06T00:14:45.862Z,73.26
2019-04-06T00:17:15.276Z,73.35
2019-04-06T00:19:44.476Z,73.39
2019-04-06T00:22:13.662Z,73.43
2019-04-06T00:24:43.075Z,73.51
2019-04-06T00:27:12.963Z,73.48
2019-04-06T00:29:42.148Z,73.50
2019-04-06T00:32:33.606Z,73.55
2019-04-06T00:35:03.068Z,73.56
2019-04-06T00:37:32.259Z,73.52
2019-04-06T00:40:01.815Z,73.67
2019-04-06T00:42:30.992Z,73.74
2019-04-06T00:45:00.214Z,73.78
2019-04-06T00:47:29.713Z,73.87
2019-04-06T00:49:58.907Z,73.89
2019-04-06T00:52:28.250Z,73.88
2019-04-06T00:54:57.749Z,73.94
2019-04-06T00:57:27.200Z,73.95
2019-04-06T00:59:56.674Z,73.98
2019-04-06T01:02:26.251Z,74.07
2019-04-06T01:04:55.445Z,74.14
2019-04-06T01:07:24.745Z,74.19
2019-04-06T01:09:54.168Z,74.22
2019-04-06T01:12:23.475Z,74.30
2019-04-06T01:14:52.690Z,74.32
2019-04-06T01:17:22.952Z,74.35
2019-04-06T01:19:52.165Z,74.33
2019-04-06T01:22:21.344Z,74.40
2019-04-06T01:24:50.861Z,74.43
2019-04-06T01:27:20.069Z,74.44
2019-04-06T01:29:49.257Z,74.42
2019-04-06T01:32:19.061Z,74.51
2019-04-06T01:34:48.243Z,74.52
2019-04-06T01:37:17.432Z,74.55
2019-04-06T01:39:46.954Z,74.60
2019-04-06T01:42:16.157Z,74.62
2019-04-06T01:44:45.365Z,74.61
2019-04-06T01:47:15.161Z,74.70
2019-04-06T01:49:44.338Z,74.68
2019-04-06T01:52:13.791Z,74.74
2019-04-06T01:54:43.163Z,74.82
2019-04-06T01:57:12.368Z,74.81
2019-04-06T01:59:41.563Z,74.75
2019-04-06T02:02:16.187Z,74.79
2019-04-06T02:04:45.366Z,74.79
2019-04-06T02:07:14.869Z,74.81
2019-04-06T02:09:44.246Z,74.79
2019-04-06T02:12:13.449Z,74.78
2019-04-06T02:14:42.714Z,74.83
2019-04-06T02:17:12.042Z,74.83
2019-04-06T02:19:41.202Z,74.84
2019-04-06T02:22:10.374Z,74.82
2019-04-06T02:24:39.775Z,74.91
2019-04-06T02:27:08.949Z,74.86
2019-04-06T02:29:38.125Z,74.94
2019-04-06T02:32:25.336Z,74.98
2019-04-06T02:35:12.386Z,74.96
2019-04-06T02:38:01.071Z,74.85
2019-04-06T02:40:44.488Z,74.71
2019-04-06T02:43:19.639Z,74.75
2019-04-06T02:45:48.961Z,74.79
2019-04-06T02:48:18.168Z,74.87
2019-04-06T02:50:47.564Z,74.97
2019-04-06T02:53:16.739Z,75.03
2019-04-06T02:55:45.935Z,75.07
2019-04-06T02:58:15.334Z,75.16
2019-04-06T03:00:44.641Z,75.22
2019-04-06T03:03:14.439Z,75.24
2019-04-06T03:05:44.289Z,75.21
2019-04-06T03:08:13.776Z,75.18
2019-04-06T03:10:42.973Z,75.20
2019-04-06T03:13:12.362Z,75.20
2019-04-06T03:15:41.598Z,75.22
2019-04-06T03:18:10.889Z,75.26
2019-04-06T03:20:40.393Z,75.32
2019-04-06T03:23:09.763Z,75.35
2019-04-06T03:25:39.024Z,75.35
2019-04-06T03:28:08.596Z,75.28
2019-04-06T03:30:37.926Z,75.20
2019-04-06T03:33:07.413Z,75.15
2019-04-06T03:35:36.886Z,75.04
2019-04-06T03:38:06.150Z,75.02
2019-04-06T03:40:35.509Z,74.95
2019-04-06T03:43:05.045Z,74.93
2019-04-06T03:45:34.234Z,74.89
2019-04-06T03:48:03.440Z,74.86
2019-04-06T03:50:33.004Z,74.82
2019-04-06T03:53:02.266Z,74.83
2019-04-06T03:55:31.535Z,74.79
2019-04-06T03:58:01.007Z,74.77
2019-04-06T04:00:30.226Z,74.75
2019-04-06T04:02:59.430Z,74.77
2019-04-06T04:05:28.897Z,74.73
2019-04-06T04:07:58.126Z,74.63
2019-04-06T04:10:34.670Z,74.58
2019-04-06T04:13:03.891Z,74.55
2019-04-06T04:15:33.114Z,74.51
2019-04-06T04:18:02.726Z,74.48
2019-04-06T04:20:32.214Z,74.39
2019-04-06T04:23:01.433Z,74.36
2019-04-06T04:25:30.871Z,74.31
2019-04-06T04:28:00.059Z,74.25
2019-04-06T04:30:33.174Z,74.21
2019-04-06T04:33:00.400Z,74.18
2019-04-06T04:35:29.687Z,74.16
2019-04-06T04:37:59.018Z,74.04
2019-04-06T04:40:28.404Z,73.98
2019-04-06T04:42:57.796Z,73.94
2019-04-06T04:45:27.028Z,73.85
2019-04-06T04:47:56.642Z,73.83
2019-04-06T04:50:26.013Z,73.78
2019-04-06T04:52:55.319Z,73.69
2019-04-06T04:55:24.820Z,73.60
2019-04-06T04:57:54.062Z,73.52
2019-04-06T05:00:23.273Z,73.47
2019-04-06T05:02:52.725Z,73.45
2019-04-06T05:05:22.065Z,73.42
2019-04-06T05:07:51.240Z,73.33
2019-04-06T05:10:20.618Z,73.33
2019-04-06T05:12:50.074Z,73.25
2019-04-06T05:15:29.690Z,73.12
2019-04-06T05:17:58.928Z,73.06
2019-04-06T05:20:28.156Z,73.04
2019-04-06T05:22:57.584Z,73.00
2019-04-06T05:25:29.224Z,72.94
2019-04-06T05:27:58.642Z,72.87
2019-04-06T05:30:27.923Z,72.82
2019-04-06T05:32:57.145Z,72.78
2019-04-06T05:35:26.581Z,72.67
2019-04-06T05:37:55.920Z,72.55
2019-04-06T05:40:25.553Z,72.45
2019-04-06T05:42:54.997Z,72.36
2019-04-06T05:45:24.239Z,72.21
2019-04-06T05:47:53.648Z,72.12
2019-04-06T05:50:23.245Z,71.95
2019-04-06T05:52:52.528Z,71.78
2019-04-06T05:55:24.280Z,71.57
2019-04-06T05:58:02.930Z,71.35
2019-04-06T06:00:24.303Z,71.17
2019-04-06T06:02:53.551Z,70.94
2019-04-06T06:05:23.039Z,70.82
2019-04-06T06:07:52.382Z,70.66
2019-04-06T06:10:21.584Z,70.53
2019-04-06T06:12:51.041Z,70.34
2019-04-06T06:15:20.304Z,70.12
2019-04-06T06:17:49.661Z,69.82
2019-04-06T06:20:19.346Z,69.58
2019-04-06T06:22:48.657Z,69.29
2019-04-06T06:25:17.889Z,68.98
2019-04-06T06:27:47.359Z,68.58
2019-04-06T06:30:16.778Z,68.25
2019-04-06T06:32:46.087Z,67.60
2019-04-06T06:35:15.481Z,66.88
2019-04-06T06:37:44.855Z,66.45
2019-04-06T06:40:14.478Z,66.06
2019-04-06T06:42:44.070Z,65.67
2019-04-06T06:45:13.665Z,65.16
2019-04-06T06:47:43.017Z,64.60
2019-04-06T06:50:12.583Z,63.93
2019-04-06T06:52:41.834Z,63.44
2019-04-06T06:55:11.729Z,62.84
2019-04-06T06:57:41.318Z,62.39
2019-04-06T07:00:11.278Z,61.92
2019-04-06T07:02:40.502Z,62.11
2019-04-06T07:05:10.226Z,62.00
2019-04-06T07:07:39.851Z,61.22
2019-04-06T07:10:09.722Z,60.01
2019-04-06T07:12:39.223Z,59.39
2019-04-06T07:15:09.248Z,58.18
2019-04-06T07:17:38.409Z,57.30
2019-04-06T07:20:08.623Z,56.07
2019-04-06T07:22:37.870Z,55.69
2019-04-06T07:25:07.403Z,54.50
2019-04-06T07:27:37.401Z,53.55
2019-04-06T07:30:07.312Z,52.50
2019-04-06T07:32:36.550Z,51.35
2019-04-06T07:35:06.041Z,51.01
2019-04-06T07:37:35.523Z,49.57
2019-04-06T07:40:06.215Z,49.63
2019-04-06T07:42:35.629Z,48.96
2019-04-06T07:45:05.848Z,47.93
2019-04-06T07:47:35.541Z,47.18
2019-04-06T07:50:05.203Z,46.29
2019-04-06T07:52:34.479Z,44.91
2019-04-06T07:55:03.874Z,44.21
2019-04-06T07:57:33.301Z,43.76
2019-04-06T08:00:02.569Z,43.74
2019-04-06T08:02:31.799Z,42.84
2019-04-06T08:05:01.406Z,42.24
2019-04-06T08:07:30.743Z,40.92
2019-04-06T08:10:00.055Z,40.57
2019-04-06T08:12:29.433Z,39.83
2019-04-06T08:14:58.741Z,39.38
2019-04-06T08:17:28.006Z,38.61
2019-04-06T08:19:57.385Z,38.22
2019-04-06T08:22:26.759Z,37.60
2019-04-06T08:24:55.933Z,37.72
2019-04-06T08:27:25.578Z,37.05
2019-04-06T08:29:54.925Z,37.02
2019-04-06T08:32:24.165Z,36.93
2019-04-06T08:34:53.653Z,36.42
2019-04-06T08:37:23.023Z,36.11
2019-04-06T08:39:52.374Z,35.68
2019-04-06T08:42:22.133Z,35.44
2019-04-06T08:44:51.466Z,34.85
2019-04-06T08:47:21.509Z,34.59
2019-04-06T08:49:51.082Z,34.31
2019-04-06T08:52:20.696Z,33.52
2019-04-06T08:54:49.987Z,32.88
2019-04-06T08:57:19.506Z,32.55
2019-04-06T08:59:48.797Z,32.83
2019-04-06T09:02:18.077Z,32.74
2019-04-06T09:04:47.611Z,32.81
2019-04-06T09:07:16.972Z,33.39
2019-04-06T09:09:46.157Z,33.64
2019-04-06T09:12:15.480Z,33.58
2019-04-06T09:14:44.735Z,33.75
2019-04-06T09:17:14.302Z,33.82
2019-04-06T09:19:43.781Z,33.49
2019-04-06T09:22:13.126Z,33.34
2019-04-06T09:24:42.665Z,32.99
2019-04-06T09:27:12.138Z,32.62
2019-04-06T09:29:41.372Z,32.42
2019-04-06T09:32:10.752Z,31.82
2019-04-06T09:34:40.204Z,31.34
2019-04-06T09:37:09.460Z,31.01
2019-04-06T09:39:38.659Z,30.84
2019-04-06T09:42:08.097Z,30.47
2019-04-06T09:44:56.288Z,30.20
2019-04-06T09:47:29.639Z,29.86
2019-04-06T09:50:17.915Z,29.64
2019-04-06T09:53:12.162Z,29.32
2019-04-06T09:55:54.342Z,29.20
2019-04-06T09:59:09.873Z,28.03
2019-04-06T10:01:56.941Z,26.63
2019-04-06T10:04:48.971Z,26.52
2019-04-06T10:07:34.013Z,25.45
2019-04-06T10:10:25.358Z,25.77
2019-04-06T10:13:12.424Z,25.09
2019-04-06T10:15:52.663Z,25.09
2019-04-06T10:18:55.927Z,24.33
2019-04-06T10:21:53.310Z,24.48
2019-04-06T10:24:54.221Z,24.42
2019-04-06T10:27:56.012Z,24.31
2019-04-06T10:30:59.335Z,24.31
2019-04-06T10:33:37.204Z,24.33
2019-04-06T10:36:24.660Z,24.23
2019-04-06T10:39:11.665Z,23.76
2019-04-06T10:42:15.303Z,23.30
2019-04-06T10:45:12.521Z,23.40
2019-04-06T10:47:56.883Z,23.32
2019-04-06T10:50:43.230Z,22.06
2019-04-06T10:53:23.519Z,22.33
2019-04-06T10:56:00.490Z,22.34
2019-04-06T10:58:48.689Z,22.76
2019-04-06T11:01:35.443Z,22.58
2019-04-06T11:04:32.802Z,22.59
2019-04-06T11:07:21.208Z,22.40
2019-04-06T11:10:08.015Z,22.28
2019-04-06T11:12:56.347Z,22.32
2019-04-06T11:15:50.695Z,22.22
2019-04-06T11:18:57.028Z,21.96
2019-04-06T11:21:43.716Z,22.15
2019-04-06T11:24:25.173Z,22.18
2019-04-06T11:27:08.394Z,21.98
2019-04-06T11:29:46.753Z,21.94
2019-04-06T11:32:41.323Z,21.56
2019-04-06T11:35:24.845Z,21.65
2019-04-06T11:38:12.618Z,21.16
2019-04-06T11:40:51.191Z,21.58
2019-04-06T11:43:42.604Z,21.83
2019-04-06T11:46:20.607Z,21.17
2019-04-06T11:48:56.561Z,21.31
2019-04-06T11:51:43.725Z,21.43
2019-04-06T11:54:47.144Z,21.32
2019-04-06T11:57:35.523Z,20.87
2019-04-06T12:00:25.595Z,21.03
2019-04-06T12:03:03.829Z,21.06
2019-04-06T12:05:50.633Z,21.24
2019-04-06T12:08:50.852Z,21.21
2019-04-06T12:11:48.298Z,21.25
2019-04-06T12:14:22.768Z,21.34
2019-04-06T12:17:17.543Z,21.52
2019-04-06T12:20:09.086Z,21.67
2019-04-06T12:22:56.667Z,21.77
2019-04-06T12:25:35.588Z,21.53
2019-04-06T12:28:21.268Z,21.45
2019-04-06T12:30:54.910Z,21.34
2019-04-06T12:33:42.157Z,21.42
2019-04-06T12:36:28.486Z,21.57
2019-04-06T12:39:14.613Z,21.47
2019-04-06T12:42:06.132Z,21.37
2019-04-06T12:44:53.198Z,21.21
2019-04-06T12:47:44.498Z,20.87
2019-04-06T12:50:33.850Z,20.14
2019-04-06T12:53:34.303Z,20.17
2019-04-06T12:56:34.729Z,20.21
2019-04-06T12:59:22.108Z,20.03
2019-04-06T13:02:10.827Z,20.03
2019-04-06T13:04:59.375Z,19.97
2019-04-06T13:07:39.752Z,19.49
2019-04-06T13:10:26.932Z,19.75
2019-04-06T13:13:14.453Z,19.56
2019-04-06T13:15:55.324Z,19.60
2019-04-06T13:18:46.401Z,19.43
2019-04-06T13:21:36.564Z,19.31
2019-04-06T13:24:30.825Z,19.25
2019-04-06T13:27:22.136Z,19.50
2019-04-06T13:29:59.826Z,19.63
2019-04-06T13:32:46.863Z,19.78
2019-04-06T13:35:25.842Z,19.48
2019-04-06T13:38:02.626Z,19.42
2019-04-06T13:41:02.900Z,19.24
2019-04-06T13:43:44.389Z,19.27
2019-04-06T13:46:26.166Z,19.89
2019-04-06T13:49:17.246Z,19.44
2019-04-06T13:51:52.087Z,19.40
2019-04-06T13:54:37.641Z,19.19
2019-04-06T13:57:19.435Z,19.15
2019-04-06T14:00:14.583Z,19.27
2019-04-06T14:03:11.789Z,19.34
2019-04-06T14:05:59.288Z,19.32
2019-04-06T14:08:47.587Z,19.22
2019-04-06T14:11:27.612Z,18.84
2019-04-06T14:14:11.699Z,18.76
2019-04-06T14:16:53.365Z,18.84
2019-04-06T14:19:45.042Z,19.14
2019-04-06T14:22:30.138Z,19.22
2019-04-06T14:25:18.420Z,19.37
2019-04-06T14:28:16.246Z,19.51
2019-04-06T14:31:02.773Z,19.58
2019-04-06T14:34:01.595Z,19.72
2019-04-06T14:36:37.605Z,19.78
2019-04-06T14:39:33.308Z,20.00
2019-04-06T14:42:27.540Z,20.12
2019-04-06T14:45:14.657Z,20.21
2019-04-06T14:48:15.011Z,20.32
2019-04-06T14:51:01.824Z,20.31
2019-04-06T14:53:52.888Z,20.44
2019-04-06T14:56:28.028Z,20.39
2019-04-06T14:59:28.527Z,20.56
2019-04-06T15:02:22.973Z,20.98
2019-04-06T15:05:11.155Z,21.39
2019-04-06T15:07:58.595Z,21.65
2019-04-06T15:10:39.179Z,22.19
2019-04-06T15:13:39.778Z,22.60
2019-04-06T15:16:28.098Z,23.08
2019-04-06T15:19:17.550Z,23.64
2019-04-06T15:21:56.323Z,23.85
2019-04-06T15:24:35.365Z,24.15
2019-04-06T15:27:22.764Z,24.37
2019-04-06T15:30:03.263Z,24.72
2019-04-06T15:32:50.375Z,24.96
2019-04-06T15:35:37.450Z,25.35
2019-04-06T15:38:24.884Z,25.45
2019-04-06T15:41:04.510Z,25.86
2019-04-06T15:43:55.688Z,26.41
2019-04-06T15:46:43.092Z,26.41
2019-04-06T15:49:31.487Z,26.33
2019-04-06T15:52:19.373Z,26.45
2019-04-06T15:55:20.297Z,26.77
2019-04-06T15:57:57.255Z,27.20
2019-04-06T16:00:57.545Z,27.69
2019-04-06T16:03:55.018Z,28.06
2019-04-06T16:06:34.452Z,28.22
2019-04-06T16:09:21.496Z,28.34
2019-04-06T16:12:06.838Z,28.53
2019-04-06T16:14:52.332Z,28.72
2019-04-06T16:17:45.906Z,29.01
2019-04-06T16:20:30.856Z,29.18
2019-04-06T16:23:18.469Z,29.11
2019-04-06T16:26:06.747Z,29.21
2019-04-06T16:28:48.682Z,29.39
2019-04-06T16:31:33.608Z,29.80
2019-04-06T16:34:14.023Z,30.14
2019-04-06T16:37:01.314Z,30.43
2019-04-06T16:39:52.981Z,30.44
2019-04-06T16:42:42.603Z,30.48
2019-04-06T16:45:29.815Z,30.69
2019-04-06T16:48:24.214Z,31.00
2019-04-06T16:51:15.525Z,31.26
2019-04-06T16:54:02.977Z,31.60
2019-04-06T16:56:47.142Z,32.00
2019-04-06T16:59:37.108Z,32.30
2019-04-06T17:02:40.927Z,32.57
2019-04-06T17:05:28.122Z,32.80
2019-04-06T17:08:10.538Z,33.03
2019-04-06T17:11:01.090Z,33.25
2019-04-06T17:13:41.032Z,33.49
2019-04-06T17:16:29.490Z,33.76
2019-04-06T17:19:20.257Z,33.93
2019-04-06T17:21:55.316Z,34.11
2019-04-06T17:24:52.855Z,34.20
2019-04-06T17:27:56.560Z,34.46
2019-04-06T17:30:34.865Z,34.60
2019-04-06T17:33:19.758Z,34.71
2019-04-06T17:36:06.801Z,34.98
2019-04-06T17:38:54.501Z,35.17
2019-04-06T17:41:34.093Z,35.31
2019-04-06T17:44:20.970Z,35.48
2019-04-06T17:47:12.422Z,35.77
2019-04-06T17:49:53.864Z,35.91
2019-04-06T17:52:50.940Z,36.10
2019-04-06T17:55:37.148Z,36.24
2019-04-06T17:58:17.324Z,36.41
2019-04-06T18:01:06.035Z,36.53
2019-04-06T18:03:53.018Z,36.75
2019-04-06T18:06:50.620Z,36.84
2019-04-06T18:09:30.440Z,36.92
2019-04-06T18:12:12.815Z,37.01
2019-04-06T18:14:42.856Z,37.22
2019-04-06T18:17:12.070Z,37.33
2019-04-06T18:19:41.562Z,37.49
2019-04-06T18:22:10.941Z,37.59
2019-04-06T18:24:40.207Z,37.72
2019-04-06T18:27:09.693Z,37.87
2019-04-06T18:29:39.394Z,37.96
2019-04-06T18:32:26.302Z,38.03
2019-04-06T18:34:56.427Z,38.12
2019-04-06T18:37:38.985Z,38.21
2019-04-06T18:40:27.153Z,38.27
2019-04-06T18:42:56.403Z,38.37
2019-04-06T18:45:26.584Z,38.40
2019-04-06T18:47:56.185Z,38.51
2019-04-06T18:50:34.383Z,38.62
2019-04-06T18:52:56.738Z,38.70
2019-04-06T18:55:27.041Z,38.80
2019-04-06T18:58:07.917Z,38.86
2019-04-06T19:00:28.611Z,38.96
2019-04-06T19:03:11.077Z,39.01
2019-04-06T19:05:29.762Z,39.06
2019-04-06T19:07:59.274Z,39.14
2019-04-06T19:10:28.739Z,39.17
2019-04-06T19:12:58.026Z,39.27
2019-04-06T19:15:27.399Z,39.33
2019-04-06T19:17:56.905Z,39.41
2019-04-06T19:20:26.830Z,39.44
2019-04-06T19:22:56.162Z,39.51
2019-04-06T19:25:25.550Z,39.59
2019-04-06T19:27:55.157Z,39.68
2019-04-06T19:30:24.885Z,39.73
2019-04-06T19:32:54.202Z,39.77
2019-04-06T19:35:23.710Z,39.86
2019-04-06T19:37:56.739Z,39.96
2019-04-06T19:40:26.128Z,40.07
2019-04-06T19:42:55.549Z,40.09
2019-04-06T19:45:24.940Z,40.24
2019-04-06T19:47:54.360Z,40.37
2019-04-06T19:50:23.705Z,40.49
2019-04-06T19:52:52.922Z,40.62
2019-04-06T19:55:22.860Z,40.71
2019-04-06T19:57:52.348Z,40.87
2019-04-06T20:00:22.394Z,40.88
2019-04-06T20:02:51.869Z,40.94
2019-04-06T20:05:21.408Z,41.07
2019-04-06T20:07:50.633Z,41.12
2019-04-06T20:10:20.144Z,41.21
2019-04-06T20:12:49.442Z,41.31
2019-04-06T20:15:18.767Z,41.43
2019-04-06T20:17:48.281Z,41.45
2019-04-06T20:20:17.634Z,41.55
2019-04-06T20:22:46.949Z,41.65
2019-04-06T20:25:17.672Z,41.70
2019-04-06T20:27:47.464Z,41.77
2019-04-06T20:30:17.225Z,41.91
2019-04-06T20:32:46.849Z,41.94
2019-04-06T20:35:16.082Z,42.00
2019-04-06T20:37:45.330Z,42.22
2019-04-06T20:40:15.432Z,42.42
2019-04-06T20:42:44.916Z,42.45
2019-04-06T20:45:15.781Z,42.52
2019-04-06T20:47:46.345Z,42.67
2019-04-06T20:50:15.898Z,42.72
2019-04-06T20:52:45.136Z,42.83
2019-04-06T20:55:15.426Z,42.91
2019-04-06T20:57:45.101Z,42.92
2019-04-06T21:00:15.289Z,42.91
2019-04-06T21:02:45.204Z,42.99
2019-04-06T21:05:14.935Z,43.15
2019-04-06T21:07:46.470Z,43.16
2019-04-06T21:10:16.453Z,43.35
2019-04-06T21:12:45.979Z,43.32
2019-04-06T21:15:20.041Z,43.46
2019-04-06T21:17:46.663Z,43.51
2019-04-06T21:20:16.006Z,43.69
2019-04-06T21:22:45.335Z,43.79
2019-04-06T21:25:14.784Z,43.76
2019-04-06T21:27:44.778Z,43.94
2019-04-06T21:30:14.458Z,44.09
2019-04-06T21:32:44.684Z,44.23
2019-04-06T21:35:14.013Z,44.27
2019-04-06T21:37:43.907Z,44.34
2019-04-06T21:40:13.589Z,44.39
2019-04-06T21:42:43.230Z,44.49
2019-04-06T21:45:14.000Z,44.58
2019-04-06T21:47:43.346Z,44.74
2019-04-06T21:50:12.852Z,44.80
2019-04-06T21:52:42.120Z,44.91
2019-04-06T21:55:13.841Z,45.04
2019-04-06T21:57:43.201Z,45.14
2019-04-06T22:00:17.734Z,45.32
2019-04-06T22:02:47.216Z,45.47
2019-04-06T22:05:17.055Z,45.62
2019-04-06T22:07:49.626Z,45.68
2019-04-06T22:10:17.480Z,45.73
2019-04-06T22:12:46.916Z,46.02
2019-04-06T22:15:16.599Z,46.19
2019-04-06T22:17:45.819Z,46.23
2019-04-06T22:20:15.407Z,46.47
2019-04-06T22:22:44.698Z,46.61
2019-04-06T22:25:14.430Z,46.69
2019-04-06T22:27:43.868Z,46.78
2019-04-06T22:30:13.304Z,46.84
2019-04-06T22:32:42.523Z,47.04
2019-04-06T22:35:12.491Z,47.12
2019-04-06T22:37:41.938Z,47.28
2019-04-06T22:40:11.751Z,47.40
2019-04-06T22:42:41.143Z,47.56
2019-04-06T22:45:12.221Z,47.70
2019-04-06T22:47:41.566Z,47.83
2019-04-06T22:50:11.152Z,47.96
2019-04-06T22:52:40.394Z,48.06
2019-04-06T22:55:10.254Z,48.35
2019-04-06T22:57:39.891Z,48.44
2019-04-06T23:00:11.492Z,48.63
2019-04-06T23:02:50.246Z,48.70
2019-04-06T23:05:25.668Z,48.74
2019-04-06T23:07:55.156Z,48.89
2019-04-06T23:10:24.970Z,49.00
2019-04-06T23:12:55.282Z,49.16
2019-04-06T23:15:24.880Z,49.27
2019-04-06T23:17:54.325Z,49.46
2019-04-06T23:20:24.348Z,49.64
2019-04-06T23:22:53.951Z,49.71
2019-04-06T23:25:23.171Z,49.91
2019-04-06T23:27:52.454Z,50.03
2019-04-06T23:30:22.662Z,50.09
2019-04-06T23:32:52.261Z,50.13
2019-04-06T23:35:22.038Z,50.30
2019-04-06T23:37:51.542Z,50.33
2019-04-06T23:40:21.374Z,50.36
2019-04-06T23:42:50.686Z,50.45
2019-04-06T23:45:20.735Z,50.55
2019-04-06T23:47:50.392Z,50.65
2019-04-06T23:50:19.661Z,50.67
2019-04-06T23:52:48.859Z,50.76
2019-04-06T23:55:18.756Z,50.84
2019-04-06T23:57:48.111Z,50.87
